Time;durP1;ratioP1;P1;durP2;ratioP2;P2;SDS_P1;SDS_P2;PMS_P1;PMS_P2;Temp;Humidity;BMP_temperature;BMP_pressure;BME280_temperature;BME280_humidity;BME280_pressure;Samples;Min_cycle;Max_cycle;Signal;HPM_P1;HPM_P2
2023/06/15 00:00:09;;;;;;;7.25;2.70;;;;;;;;;;5102103;28;20429;-76
2023/06/15 00:02:35;;;;;;;6.65;3.03;;;17.80;99.90;;;;;;5091598;28;20422;-76
2023/06/15 00:05:00;;;;;;;4.80;2.60;;;17.80;99.90;;;;;;5043750;28;20482;-76
2023/06/15 00:07:26;;;;;;;5.43;2.70;;;17.60;99.90;;;;;;5102824;28;20420;-75
2023/06/15 00:09:52;;;;;;;6.50;2.53;;;17.60;99.90;;;;;;5074543;27;20824;-75
2023/06/15 00:12:18;;;;;;;8.25;2.80;;;17.40;99.90;;;;;;5064404;27;20412;-76
2023/06/15 00:14:43;;;;;;;5.23;2.67;;;17.40;99.90;;;;;;5089792;27;20415;-76
2023/06/15 00:17:11;;;;;;;5.73;2.90;;;17.30;99.90;;;;;;5082247;27;20394;-76
2023/06/15 00:19:38;;;;;;;4.45;2.67;;;17.50;99.90;;;;;;5108985;27;20415;-77
2023/06/15 00:22:04;;;;;;;7.47;3.10;;;;;;;;;;5101996;27;20451;-76
2023/06/15 00:24:30;;;;;;;4.60;2.60;;;17.70;99.90;;;;;;5077220;28;20418;-75
2023/06/15 00:26:56;;;;;;;5.90;3.10;;;17.50;99.90;;;;;;5100905;28;20415;-75
2023/06/15 00:29:21;;;;;;;6.78;3.10;;;17.10;99.90;;;;;;5047526;27;20927;-76
2023/06/15 00:31:47;;;;;;;5.90;2.80;;;17.10;99.90;;;;;;5079236;28;20408;-76
2023/06/15 00:34:13;;;;;;;4.50;2.80;;;17.00;99.90;;;;;;5102036;27;20411;-75
2023/06/15 00:36:39;;;;;;;8.00;3.20;;;;;;;;;;5095025;27;20418;-76
2023/06/15 00:39:05;;;;;;;5.97;3.10;;;16.90;99.90;;;;;;5098703;27;20399;-76
2023/06/15 00:41:40;;;;;;;5.90;3.00;;;17.20;99.90;;;;;;5086889;27;20421;-76
2023/06/15 00:44:06;;;;;;;5.15;3.10;;;16.80;99.90;;;;;;5098532;27;20426;-76
2023/06/15 00:46:32;;;;;;;6.90;3.30;;;17.00;99.90;;;;;;5079892;27;20973;-76
2023/06/15 00:48:57;;;;;;;7.20;3.30;;;16.70;99.90;;;;;;5095101;27;20424;-76
2023/06/15 00:51:23;;;;;;;7.40;3.47;;;16.90;99.90;;;;;;5081448;28;20432;-77
2023/06/15 00:53:50;;;;;;;8.07;3.10;;;;;;;;;;5071760;27;20402;-76
2023/06/15 00:56:17;;;;;;;6.45;3.30;;;16.60;99.90;;;;;;5097183;28;20416;-76
2023/06/15 00:58:44;;;;;;;6.82;3.58;;;16.70;99.90;;;;;;5104493;27;20966;-76
2023/06/15 01:01:10;;;;;;;7.78;3.63;;;16.70;99.90;;;;;;5108581;28;20418;-76
2023/06/15 01:03:36;;;;;;;5.80;3.50;;;;;;;;;;5097982;28;20407;-76
2023/06/15 01:06:12;;;;;;;6.88;3.60;;;;;;;;;;5093831;28;20428;-76
2023/06/15 01:08:48;;;;;;;8.45;3.63;;;16.60;99.90;;;;;;5096272;28;20468;-76
2023/06/15 01:11:15;;;;;;;7.97;3.45;;;16.70;99.90;;;;;;5094164;28;20404;-76
2023/06/15 01:13:43;;;;;;;8.32;3.33;;;16.50;99.90;;;;;;5093331;28;20424;-75
2023/06/15 01:16:11;;;;;;;6.90;3.50;;;;;;;;;;5096418;28;20957;-76
2023/06/15 01:18:46;;;;;;;7.57;3.83;;;16.40;99.90;;;;;;5098255;28;20402;-76
2023/06/15 01:21:13;;;;;;;9.57;3.47;;;;;;;;;;5105364;28;20496;-76
2023/06/15 01:23:49;;;;;;;7.43;3.60;;;16.60;99.90;;;;;;5106154;27;20893;-76
2023/06/15 01:26:16;;;;;;;7.93;3.33;;;;;;;;;;5115010;28;20949;-75
2023/06/15 01:28:46;;;;;;;5.90;3.60;;;16.60;99.90;;;;;;5117608;27;20433;-75
2023/06/15 01:31:13;;;;;;;7.03;3.63;;;;;;;;;;5097876;27;20416;-76
2023/06/15 01:33:50;;;;;;;5.78;3.50;;;16.50;99.90;;;;;;5119544;27;20394;-75
2023/06/15 01:36:16;;;;;;;7.35;3.72;;;16.50;99.90;;;;;;5101618;27;20467;-75
2023/06/15 01:38:44;;;;;;;7.25;3.50;;;16.30;99.90;;;;;;5097461;28;20404;-77
2023/06/15 01:41:10;;;;;;;8.20;3.60;;;16.60;99.90;;;;;;5104904;27;20420;-76
2023/06/15 01:43:37;;;;;;;6.78;3.17;;;;;;;;;;5100956;27;20428;-76
2023/06/15 01:46:05;;;;;;;6.28;3.35;;;16.40;99.90;;;;;;5093301;27;20560;-76
2023/06/15 01:48:31;;;;;;;6.47;3.40;;;16.50;99.90;;;;;;5094493;27;20469;-76
2023/06/15 01:50:57;;;;;;;6.35;3.25;;;;;;;;;;5097816;27;20418;-76
2023/06/15 01:53:23;;;;;;;6.13;3.20;;;16.40;99.90;;;;;;5111025;27;20455;-77
2023/06/15 01:55:50;;;;;;;6.60;3.33;;;16.40;99.90;;;;;;5083526;27;20402;-76
2023/06/15 01:58:16;;;;;;;10.68;3.83;;;16.30;99.90;;;;;;5101639;27;20419;-76
2023/06/15 02:00:43;;;;;;;7.07;3.38;;;;;;;;;;5101394;27;20390;-76
2023/06/15 02:03:09;;;;;;;6.13;3.60;;;;;;;;;;5101076;28;20810;-76
2023/06/15 02:05:39;;;;;;;6.87;3.57;;;;;;;;;;5102884;27;20563;-75
2023/06/15 02:08:13;;;;;;;8.88;3.65;;;16.10;99.90;;;;;;5086089;28;20474;-75
2023/06/15 02:10:40;;;;;;;7.97;3.75;;;16.30;99.90;;;;;;5097173;28;20418;-75
2023/06/15 02:13:07;;;;;;;8.80;3.85;;;16.00;99.90;;;;;;5092153;27;20406;-75
2023/06/15 02:15:33;;;;;;;7.45;3.78;;;16.10;99.90;;;;;;5104036;28;20400;-76
2023/06/15 02:18:01;;;;;;;8.25;3.78;;;;;;;;;;5095982;27;20433;-75
2023/06/15 02:20:30;;;;;;;7.13;3.47;;;;;;;;;;5096740;27;20987;-75
2023/06/15 02:22:59;;;;;;;6.75;3.63;;;;;;;;;;5105981;27;20420;-75
2023/06/15 02:25:29;;;;;;;7.93;3.95;;;15.90;99.90;;;;;;5101354;27;20395;-75
2023/06/15 02:27:56;;;;;;;9.93;4.00;;;15.90;99.90;;;;;;5105365;27;20504;-75
2023/06/15 02:30:22;;;;;;;8.90;4.18;;;;;;;;;;5069461;28;20505;-76
2023/06/15 02:32:48;;;;;;;9.23;3.73;;;16.10;99.90;;;;;;5088144;27;20414;-76
2023/06/15 02:35:14;;;;;;;7.97;4.00;;;;;;;;;;5083638;27;20735;-76
2023/06/15 02:37:41;;;;;;;15.18;4.40;;;15.90;99.90;;;;;;5083769;27;20414;-76
2023/06/15 02:40:08;;;;;;;6.55;3.90;;;15.60;99.90;;;;;;5105240;28;20424;-76
2023/06/15 02:42:35;;;;;;;6.80;4.15;;;;;;;;;;5105687;27;20412;-76
2023/06/15 02:45:02;;;;;;;8.63;4.57;;;15.80;99.90;;;;;;5117603;27;20405;-76
2023/06/15 02:47:32;;;;;;;7.90;4.45;;;;;;;;;;5105016;28;20420;-76
2023/06/15 02:50:00;;;;;;;8.85;4.70;;;;;;;;;;5093936;28;20412;-75
2023/06/15 02:52:27;;;;;;;8.00;4.90;;;;;;;;;;5087833;27;20757;-75
2023/06/15 02:54:53;;;;;;;7.90;4.50;;;;;;;;;;5098516;28;20412;-76
2023/06/15 02:57:19;;;;;;;11.25;4.82;;;15.30;99.90;;;;;;5095712;27;20823;-76
2023/06/15 02:59:46;;;;;;;7.25;4.60;;;15.60;99.90;;;;;;5101553;27;20406;-75
2023/06/15 03:02:12;;;;;;;7.00;4.47;;;;;;;;;;5063026;27;20519;-76
2023/06/15 03:04:44;;;;;;;10.57;5.05;;;;;;;;;;5099366;27;20735;-76
2023/06/15 03:07:22;;;;;;;10.07;4.90;;;15.30;99.90;;;;;;5107505;27;20918;-75
2023/06/15 03:09:49;;;;;;;8.63;4.57;;;15.40;99.90;;;;;;5098962;27;20454;-75
2023/06/15 05:00:16;;;;;;;10.23;4.88;;;;;;;;;;5147344;27;20366;-74
2023/06/15 05:02:43;;;;;;;9.70;4.80;;;;;;;;;;5091133;28;20423;-76
2023/06/15 05:05:09;;;;;;;9.45;4.97;;;;;;;;;;5090802;28;20441;-75
2023/06/15 05:07:35;;;;;;;8.93;5.05;;;;;;;;;;5093000;28;20445;-77
2023/06/15 05:10:03;;;;;;;10.10;5.28;;;;;;;;;;5109478;28;20938;-75
2023/06/15 05:12:29;;;;;;;7.70;4.90;;;;;;;;;;5126979;28;20470;-76
2023/06/15 05:14:55;;;;;;;7.90;5.30;;;;;;;;;;5109780;28;20407;-75
2023/06/15 05:17:21;;;;;;;8.75;5.15;;;;;;;;;;5106908;28;20420;-76
2023/06/15 05:19:47;;;;;;;7.15;4.78;;;;;;;;;;5115357;28;20429;-75
2023/06/15 05:22:13;;;;;;;7.97;4.68;;;;;;;;;;5090872;28;20417;-75
2023/06/15 05:24:39;;;;;;;7.25;4.70;;;16.60;99.90;;;;;;5119727;28;20419;-74
2023/06/15 05:27:05;;;;;;;8.20;4.80;;;;;;;;;;5099608;28;20434;-75
2023/06/15 05:29:31;;;;;;;8.93;4.63;;;16.80;99.90;;;;;;5102142;28;20424;-75
2023/06/15 05:31:59;;;;;;;8.10;4.75;;;;;;;;;;5105894;28;20416;-75
2023/06/15 05:34:26;;;;;;;9.32;4.70;;;;;;;;;;5110986;28;20447;-74
2023/06/15 05:36:52;;;;;;;7.50;4.90;;;;;;;;;;5112051;28;20459;-74
2023/06/15 05:39:18;;;;;;;9.23;4.70;;;;;;;;;;5113249;28;20470;-75
2023/06/15 05:41:44;;;;;;;7.63;4.50;;;17.20;99.90;;;;;;5107457;28;20467;-77
2023/06/15 05:44:10;;;;;;;9.83;4.70;;;;;;;;;;5106865;28;20912;-76
2023/06/15 05:46:36;;;;;;;7.72;4.10;;;17.60;99.90;;;;;;5097180;28;20510;-75
2023/06/15 05:49:02;;;;;;;9.23;4.37;;;;;;;;;;5100063;28;20853;-75
2023/06/15 05:51:28;;;;;;;11.30;4.57;;;;;;;;;;5107366;28;20417;-75
2023/06/15 05:53:53;;;;;;;9.80;4.25;;;17.50;99.90;;;;;;5097089;28;20421;-76
2023/06/15 05:56:19;;;;;;;10.20;4.27;;;17.70;99.90;;;;;;5100947;28;20492;-76
2023/06/15 05:58:45;;;;;;;7.30;4.10;;;;;;;;;;5109991;28;20467;-74
2023/06/15 06:01:11;;;;;;;10.90;4.43;;;;;;;;;;5114724;28;20774;-75
2023/06/15 06:03:37;;;;;;;6.63;4.00;;;17.90;99.90;;;;;;5108013;28;20444;-75
2023/06/15 06:06:03;;;;;;;8.00;3.70;;;;;;;;;;5107524;28;20462;-75
2023/06/15 06:08:29;;;;;;;10.63;4.18;;;;;;;;;;5113885;28;20429;-76
2023/06/15 06:10:56;;;;;;;8.20;4.00;;;;;;;;;;5101312;28;20448;-76
2023/06/15 06:13:21;;;;;;;11.38;3.95;;;18.20;99.90;;;;;;5095203;28;20417;-76
2023/06/15 06:15:47;;;;;;;7.18;3.80;;;18.50;99.90;;;;;;5099743;28;20412;-76
2023/06/15 06:18:13;;;;;;;7.00;3.85;;;18.70;99.90;;;;;;5095901;28;20998;-76
2023/06/15 06:20:39;;;;;;;9.77;3.90;;;;;;;;;;5093822;28;20470;-76
2023/06/15 06:23:05;;;;;;;7.68;4.15;;;18.90;99.90;;;;;;5097371;28;20782;-76
2023/06/15 06:25:30;;;;;;;8.40;4.03;;;19.00;99.90;;;;;;5103688;28;20422;-76
2023/06/15 06:27:56;;;;;;;7.40;3.63;;;;;;;;;;5096509;28;20421;-77
2023/06/15 06:30:22;;;;;;;8.85;3.70;;;19.30;99.90;;;;;;5102203;28;20429;-76
2023/06/15 06:32:48;;;;;;;7.87;3.50;;;19.20;99.90;;;;;;5086976;28;20410;-77
2023/06/15 06:35:15;;;;;;;9.00;3.47;;;;;;;;;;5094823;28;20437;-74
2023/06/15 06:37:40;;;;;;;6.05;3.20;;;19.60;99.90;;;;;;5105412;28;20424;-75
2023/06/15 06:40:06;;;;;;;8.57;3.58;;;20.00;99.90;;;;;;5102986;28;20791;-77
2023/06/15 06:42:34;;;;;;;9.52;3.53;;;;;;;;;;5094039;28;20444;-75
2023/06/15 06:45:00;;;;;;;6.50;3.28;;;;;;;;;;5076329;28;20509;-75
2023/06/15 06:47:26;;;;;;;6.55;2.90;;;20.00;99.90;;;;;;5093152;28;20913;-77
2023/06/15 06:49:52;;;;;;;7.87;3.30;;;;;;;;;;5075879;28;20429;-76
2023/06/15 06:52:18;;;;;;;5.63;3.03;;;;;;;;;;5082504;28;20459;-75
2023/06/15 06:54:44;;;;;;;5.75;3.40;;;20.60;99.90;;;;;;5078590;28;20816;-75
2023/06/15 06:57:11;;;;;;;19.33;3.67;;;20.50;99.90;;;;;;5092883;28;20421;-76
2023/06/15 06:59:37;;;;;;;6.00;3.10;;;20.60;99.90;;;;;;5078320;28;20449;-75
2023/06/15 07:02:03;;;;;;;7.55;3.08;;;20.80;99.90;;;;;;5082571;28;20418;-78
2023/06/15 07:04:28;;;;;;;7.07;3.20;;;21.10;99.90;;;;;;5100492;28;20410;-77
2023/06/15 07:06:54;;;;;;;5.63;3.10;;;20.90;99.90;;;;;;5086334;28;20456;-76
2023/06/15 07:09:20;;;;;;;8.53;3.10;;;21.20;99.90;;;;;;5097915;28;20988;-77
2023/06/15 07:11:45;;;;;;;7.87;3.47;;;21.40;99.90;;;;;;5091814;28;20426;-75
2023/06/15 07:14:11;;;;;;;5.80;3.00;;;21.30;99.90;;;;;;5100369;27;20422;-75
2023/06/15 07:16:37;;;;;;;7.55;3.05;;;21.60;99.90;;;;;;5081289;28;20449;-75
2023/06/15 07:19:02;;;;;;;5.63;2.90;;;21.60;99.90;;;;;;5096593;28;20416;-76
2023/06/15 07:21:28;;;;;;;5.78;3.00;;;21.60;99.90;;;;;;5092188;28;20391;-73
2023/06/15 07:23:54;;;;;;;7.20;2.90;;;21.60;98.40;;;;;;5065621;28;20433;-74
2023/06/15 07:26:20;;;;;;;7.72;3.10;;;;;;;;;;5046263;28;20936;-73
2023/06/15 07:28:46;;;;;;;4.93;2.60;;;21.90;98.10;;;;;;5076770;28;20425;-74
2023/06/15 07:31:12;;;;;;;5.45;2.92;;;22.00;97.80;;;;;;5099171;28;20418;-73
2023/06/15 07:33:38;;;;;;;8.00;2.80;;;;;;;;;;5079275;28;20417;-74
2023/06/15 07:36:04;;;;;;;9.23;2.90;;;22.30;96.90;;;;;;5098010;28;20475;-73
2023/06/15 07:38:30;;;;;;;5.63;2.70;;;22.30;96.60;;;;;;5093926;28;20444;-74
2023/06/15 07:40:57;;;;;;;6.97;2.83;;;;;;;;;;5085044;28;20418;-74
2023/06/15 07:43:23;;;;;;;5.17;2.50;;;;;;;;;;5097300;28;21404;-74
2023/06/15 07:45:49;;;;;;;6.60;2.60;;;;;;;;;;5101125;28;20408;-73
2023/06/15 07:48:15;;;;;;;5.30;2.70;;;;;;;;;;5090379;28;20433;-74
2023/06/15 07:50:41;;;;;;;6.50;2.83;;;;;;;;;;5100615;27;20422;-74
2023/06/15 07:53:07;;;;;;;5.38;2.50;;;23.00;94.10;;;;;;5096998;28;20410;-74
2023/06/15 07:55:33;;;;;;;6.10;2.67;;;23.20;94.10;;;;;;5100259;27;20475;-74
2023/06/15 07:57:59;;;;;;;7.82;2.58;;;23.10;93.80;;;;;;5100732;27;20906;-76
2023/06/15 08:00:25;;;;;;;6.88;2.92;;;23.50;93.30;;;;;;5094378;28;20541;-76
2023/06/15 08:02:50;;;;;;;8.17;2.70;;;23.50;93.50;;;;;;5076793;28;20504;-76
2023/06/15 08:05:16;;;;;;;6.87;2.60;;;23.60;93.10;;;;;;5099052;28;20457;-75
2023/06/15 08:07:42;;;;;;;4.45;2.42;;;23.80;93.10;;;;;;5076510;28;20479;-75
2023/06/15 08:10:08;;;;;;;6.20;2.75;;;23.80;92.80;;;;;;5063096;28;20483;-76
2023/06/15 08:12:34;;;;;;;5.82;2.60;;;23.90;92.60;;;;;;5092810;28;20421;-75
2023/06/15 08:15:00;;;;;;;7.05;2.60;;;24.10;92.80;;;;;;5075514;28;21164;-75
2023/06/15 08:17:26;;;;;;;6.67;2.77;;;24.00;92.00;;;;;;5102457;28;20483;-76
2023/06/15 08:19:52;;;;;;;5.40;2.57;;;24.30;92.50;;;;;;5068842;28;20838;-75
2023/06/15 08:22:18;;;;;;;6.50;2.50;;;24.60;91.90;;;;;;5079373;28;21462;-76
2023/06/15 08:24:45;;;;;;;6.57;2.63;;;24.50;91.40;;;;;;5095146;28;20416;-76
2023/06/15 08:27:11;;;;;;;6.57;2.90;;;24.10;91.40;;;;;;5090007;28;20415;-75
2023/06/15 08:29:38;;;;;;;6.88;2.58;;;24.20;90.80;;;;;;5083557;28;20500;-75
2023/06/15 08:32:08;;;;;;;5.40;2.70;;;24.40;90.00;;;;;;5097036;28;20421;-75
2023/06/15 08:34:34;;;;;;;6.95;2.85;;;24.40;89.60;;;;;;5079168;28;20468;-75
2023/06/15 08:37:00;;;;;;;6.10;2.63;;;24.60;90.30;;;;;;5089774;28;20414;-76
2023/06/15 08:39:26;;;;;;;7.00;2.57;;;24.90;90.60;;;;;;5092675;28;20505;-77
2023/06/15 08:41:55;;;;;;;7.10;2.50;;;24.80;90.10;;;;;;5085495;28;20429;-76
2023/06/15 08:44:21;;;;;;;5.65;2.72;;;24.50;89.80;;;;;;5092427;28;20423;-76
2023/06/15 08:46:47;;;;;;;8.23;2.55;;;24.60;89.90;;;;;;5079620;28;20469;-76
2023/06/15 08:49:13;;;;;;;5.18;2.50;;;25.00;88.80;;;;;;5097016;28;20416;-75
2023/06/15 08:51:39;;;;;;;6.20;2.70;;;24.90;87.50;;;;;;5089685;28;21086;-74
2023/06/15 08:54:08;;;;;;;5.93;2.55;;;24.90;87.20;;;;;;5090330;28;20451;-73
2023/06/15 08:56:37;;;;;;;7.50;2.50;;;25.10;87.40;;;;;;5094344;28;20446;-75
2023/06/15 08:59:04;;;;;;;4.37;2.53;;;24.90;86.80;;;;;;5100991;28;20430;-76
2023/06/15 09:01:30;;;;;;;5.57;2.60;;;25.20;87.50;;;;;;5079928;28;20414;-77
2023/06/15 09:03:56;;;;;;;6.73;2.67;;;25.30;86.10;;;;;;5100112;28;20948;-76
2023/06/15 09:06:23;;;;;;;5.20;2.63;;;25.60;87.10;;;;;;5091565;28;20429;-76
2023/06/15 09:08:51;;;;;;;8.93;3.10;;;25.50;87.10;;;;;;5074425;28;20545;-77
2023/06/15 09:11:18;;;;;;;7.20;2.80;;;25.60;87.30;;;;;;5095026;28;20858;-77
2023/06/15 09:13:44;;;;;;;7.15;2.63;;;25.50;88.10;;;;;;5093887;28;20433;-78
2023/06/15 09:16:11;;;;;;;4.85;2.70;;;25.60;87.00;;;;;;5091251;28;20433;-77
2023/06/15 09:18:51;;;;;;;5.38;2.42;;;24.90;86.10;;;;;;5077496;28;20476;-77
2023/06/15 09:21:18;;;;;;;4.63;2.60;;;25.10;86.00;;;;;;5082789;28;20425;-76
2023/06/15 09:23:46;;;;;;;5.10;2.70;;;25.00;86.20;;;;;;5104913;28;20423;-76
2023/06/15 09:26:23;;;;;;;8.80;2.80;;;25.00;82.20;;;;;;5102067;28;20448;-77
2023/06/15 09:28:49;;;;;;;6.72;2.85;;;25.00;83.20;;;;;;5074922;28;20444;-76
2023/06/15 09:31:28;;;;;;;5.22;2.60;;;25.10;83.10;;;;;;5096941;28;20420;-76
2023/06/15 09:34:03;;;;;;;6.47;2.60;;;25.40;84.00;;;;;;5079557;28;20425;-76
2023/06/15 09:36:39;;;;;;;4.75;2.85;;;25.60;82.70;;;;;;5107599;28;20447;-77
2023/06/15 09:39:05;;;;;;;6.15;2.60;;;25.60;82.30;;;;;;5091961;28;20956;-76
2023/06/15 09:41:33;;;;;;;8.57;2.80;;;25.60;83.50;;;;;;5092952;28;20418;-76
2023/06/15 09:44:02;;;;;;;7.90;2.95;;;25.70;83.00;;;;;;5097954;28;20410;-75
2023/06/15 09:46:28;;;;;;;6.97;2.40;;;25.90;83.20;;;;;;5100871;28;20438;-78
2023/06/15 09:48:54;;;;;;;5.22;2.85;;;26.30;83.20;;;;;;5106094;28;20413;-77
2023/06/15 09:51:20;;;;;;;8.87;2.83;;;25.30;82.70;;;;;;5080604;28;20408;-78
2023/06/15 09:53:48;;;;;;;9.33;2.70;;;25.30;83.10;;;;;;5080543;28;20467;-77
2023/06/15 09:56:15;;;;;;;7.45;2.70;;;25.40;83.10;;;;;;5097006;28;20722;-78
2023/06/15 09:58:41;;;;;;;5.38;2.83;;;25.70;83.70;;;;;;5084119;28;20437;-77
2023/06/15 10:01:10;;;;;;;4.87;2.80;;;25.90;83.30;;;;;;5091595;28;20412;-77
2023/06/15 10:03:37;;;;;;;7.37;2.87;;;26.50;84.60;;;;;;5096462;28;20872;-77
2023/06/15 10:06:09;;;;;;;4.28;2.58;;;26.40;82.40;;;;;;5102375;28;20782;-77
2023/06/15 10:08:38;;;;;;;7.30;2.80;;;26.50;82.30;;;;;;5100238;28;20430;-78
2023/06/15 10:11:04;;;;;;;4.22;2.67;;;26.80;82.50;;;;;;5109272;28;20924;-77
2023/06/15 10:13:45;;;;;;;5.57;2.70;;;26.20;82.10;;;;;;5107079;28;20426;-76
2023/06/15 10:16:15;;;;;;;7.13;3.30;;;26.80;81.90;;;;;;5093779;28;21251;-76
2023/06/15 10:18:42;;;;;;;7.50;2.72;;;26.90;81.30;;;;;;5102431;28;20923;-78
2023/06/15 10:21:14;;;;;;;6.30;2.97;;;27.00;81.70;;;;;;5096263;28;20418;-77
2023/06/15 10:23:42;;;;;;;6.87;2.67;;;26.90;81.10;;;;;;5108871;28;20501;-76
2023/06/15 10:26:09;;;;;;;6.43;2.80;;;26.80;80.70;;;;;;5093778;28;20412;-77
2023/06/15 10:28:44;;;;;;;5.15;2.63;;;26.80;81.10;;;;;;5105472;28;20445;-78
2023/06/15 10:31:30;;;;;;;5.47;2.88;;;26.50;79.50;;;;;;5093484;28;20513;-76
2023/06/15 10:34:16;;;;;;;5.35;2.60;;;26.70;81.00;;;;;;5099245;28;20459;-76
2023/06/15 10:37:11;;;;;;;4.40;2.70;;;26.20;80.90;;;;;;5094007;28;20919;-75
2023/06/15 10:39:41;;;;;;;4.97;2.78;;;27.00;80.10;;;;;;5082582;28;20426;-74
2023/06/15 10:42:08;;;;;;;4.88;2.90;;;26.90;81.40;;;;;;5092503;28;20417;-75
2023/06/15 10:44:34;;;;;;;6.68;3.05;;;26.60;80.50;;;;;;5093705;28;20442;-76
2023/06/15 10:47:21;;;;;;;7.47;3.08;;;27.00;80.80;;;;;;5086692;28;20421;-76
2023/06/15 10:49:48;;;;;;;4.75;2.85;;;27.40;80.70;;;;;;5078265;28;20418;-76
2023/06/15 10:52:14;;;;;;;7.70;3.20;;;26.80;80.80;;;;;;5089875;28;20501;-76
2023/06/15 10:54:40;;;;;;;6.53;2.97;;;27.00;79.30;;;;;;5097741;28;20558;-76
2023/06/15 10:57:07;;;;;;;5.82;3.00;;;27.10;80.50;;;;;;5083968;28;20467;-76
2023/06/15 10:59:48;;;;;;;5.40;2.80;;;26.60;79.50;;;;;;5103180;28;20426;-77
2023/06/15 11:02:29;;;;;;;5.15;3.10;;;27.20;80.50;;;;;;5100603;28;20570;-77
2023/06/15 11:05:08;;;;;;;7.18;3.10;;;27.60;80.20;;;;;;5093551;28;20456;-76
2023/06/15 11:07:40;;;;;;;9.32;3.10;;;27.20;80.40;;;;;;5082874;28;20418;-75
2023/06/15 11:10:16;;;;;;;9.80;3.33;;;27.20;79.70;;;;;;5098521;28;21399;-75
2023/06/15 11:12:43;;;;;;;5.97;3.05;;;27.60;79.50;;;;;;5076372;28;20465;-76
2023/06/15 11:15:14;;;;;;;8.45;2.90;;;27.40;78.60;;;;;;5093739;28;20420;-77
2023/06/15 11:18:04;;;;;;;6.18;3.10;;;27.70;78.80;;;;;;5102922;28;20429;-76
2023/06/15 11:20:39;;;;;;;6.25;2.78;;;27.80;78.00;;;;;;5096014;28;20442;-77
2023/06/15 11:23:14;;;;;;;6.72;2.78;;;27.80;78.50;;;;;;5100822;27;20417;-76
2023/06/15 11:25:51;;;;;;;6.82;2.85;;;27.50;78.40;;;;;;5097774;28;20426;-77
2023/06/15 11:28:24;;;;;;;7.30;3.38;;;28.00;78.40;;;;;;5096727;28;20428;-77
2023/06/15 11:30:53;;;;;;;5.95;2.97;;;27.60;79.20;;;;;;5094799;28;20634;-77
2023/06/15 11:33:46;;;;;;;6.05;2.60;;;27.30;75.80;;;;;;5098054;28;20455;-77
2023/06/15 11:36:11;;;;;;;5.65;2.83;;;27.60;76.50;;;;;;5088536;28;20426;-76
2023/06/15 11:38:37;;;;;;;6.10;2.80;;;27.40;76.50;;;;;;5094284;28;20419;-76
2023/06/15 11:41:05;;;;;;;4.90;3.00;;;27.70;76.00;;;;;;5097974;28;20969;-77
2023/06/15 11:43:37;;;;;;;4.97;3.00;;;28.10;75.90;;;;;;5091146;28;20489;-77
2023/06/15 11:46:03;;;;;;;7.32;2.95;;;28.00;75.50;;;;;;5088347;28;20417;-76
2023/06/15 11:48:29;;;;;;;3.85;2.53;;;28.40;73.80;;;;;;5081188;28;20423;-75
2023/06/15 11:50:56;;;;;;;7.63;2.97;;;28.80;74.10;;;;;;5100904;28;20485;-76
2023/06/15 11:53:22;;;;;;;5.53;2.63;;;28.80;73.60;;;;;;5097739;28;20438;-76
2023/06/15 11:55:48;;;;;;;4.30;2.20;;;28.60;72.10;;;;;;5101289;28;21173;-76
2023/06/15 11:58:14;;;;;;;7.10;2.47;;;28.50;69.90;;;;;;5096267;28;20426;-77
2023/06/15 12:00:40;;;;;;;4.00;2.55;;;28.30;69.10;;;;;;5085045;28;20469;-77
2023/06/15 12:03:11;;;;;;;3.47;2.30;;;28.80;68.70;;;;;;5102603;28;20416;-78
2023/06/15 12:05:40;;;;;;;4.55;2.50;;;28.80;68.90;;;;;;5083047;28;20467;-77
2023/06/15 12:08:06;;;;;;;6.45;2.78;;;28.40;65.90;;;;;;5094633;28;20416;-76
2023/06/15 12:10:39;;;;;;;4.03;2.50;;;28.40;68.20;;;;;;5079404;28;20932;-76
2023/06/15 12:13:11;;;;;;;3.67;2.33;;;28.40;65.90;;;;;;5075142;28;20422;-78
2023/06/15 12:15:46;;;;;;;3.63;2.45;;;29.00;69.10;;;;;;5090783;28;20481;-78
2023/06/15 12:18:12;;;;;;;5.30;2.50;;;29.00;68.60;;;;;;5091881;28;20781;-76
2023/06/15 12:20:40;;;;;;;5.07;2.60;;;29.60;69.40;;;;;;5092812;28;20414;-76
2023/06/15 12:23:05;;;;;;;4.43;2.22;;;29.20;66.40;;;;;;5089780;28;20518;-75
2023/06/15 12:25:44;;;;;;;3.80;2.40;;;28.50;67.80;;;;;;5096885;28;21134;-77
2023/06/15 12:28:18;;;;;;;4.82;2.70;;;28.70;65.80;;;;;;5101253;28;20417;-76
2023/06/15 12:30:47;;;;;;;7.05;2.40;;;29.00;67.60;;;;;;5093073;28;20471;-76
2023/06/15 12:33:26;;;;;;;4.10;2.60;;;28.90;67.20;;;;;;5086964;28;20416;-76
2023/06/15 12:35:54;;;;;;;3.78;2.38;;;29.40;67.40;;;;;;5079171;28;21046;-76
2023/06/15 12:38:21;;;;;;;5.72;2.38;;;29.00;67.70;;;;;;5079060;28;20414;-75
2023/06/15 12:40:48;;;;;;;4.63;2.43;;;29.00;67.20;;;;;;5092312;28;20478;-76
2023/06/15 12:43:16;;;;;;;6.00;2.40;;;29.50;66.50;;;;;;5059762;28;20409;-76
2023/06/15 12:45:42;;;;;;;6.20;2.55;;;29.80;66.70;;;;;;5097122;28;20940;-77
2023/06/15 12:48:08;;;;;;;5.23;2.40;;;29.50;66.80;;;;;;5086624;28;20414;-78
2023/06/15 12:50:33;;;;;;;4.32;2.40;;;29.50;65.90;;;;;;5075916;28;20816;-77
2023/06/15 12:53:00;;;;;;;5.73;2.67;;;30.20;64.50;;;;;;5092431;28;20425;-76
2023/06/15 12:55:27;;;;;;;4.20;2.50;;;29.90;63.80;;;;;;5098724;28;20417;-76
2023/06/15 12:57:56;;;;;;;5.67;2.60;;;30.30;64.80;;;;;;5081840;28;20414;-76
2023/06/15 13:00:27;;;;;;;4.43;2.43;;;29.00;62.50;;;;;;5086435;28;20420;-75
2023/06/15 13:02:53;;;;;;;6.65;2.60;;;29.90;65.70;;;;;;5078463;28;20439;-74
2023/06/15 13:05:20;;;;;;;4.72;2.40;;;29.80;64.20;;;;;;5091374;28;20413;-76
2023/06/15 13:07:46;;;;;;;4.33;2.70;;;30.30;65.50;;;;;;5095116;28;20425;-76
2023/06/15 13:10:12;;;;;;;6.57;2.70;;;29.80;64.40;;;;;;5096382;28;20432;-75
2023/06/15 13:12:39;;;;;;;4.10;2.45;;;30.40;63.90;;;;;;5068596;28;20956;-76
2023/06/15 13:15:09;;;;;;;6.57;2.60;;;30.60;63.80;;;;;;5092473;28;20417;-76
2023/06/15 13:17:36;;;;;;;4.95;2.65;;;29.30;64.00;;;;;;5097483;28;20431;-76
2023/06/15 13:20:07;;;;;;;6.07;2.70;;;29.60;66.00;;;;;;5093420;28;20430;-76
2023/06/15 13:22:34;;;;;;;4.22;2.70;;;30.00;65.20;;;;;;5094687;28;20498;-76
2023/06/15 13:24:59;;;;;;;4.60;2.80;;;30.40;65.20;;;;;;5085579;28;20440;-76
2023/06/15 13:27:25;;;;;;;5.45;2.50;;;30.70;63.70;;;;;;5093266;28;20414;-76
2023/06/15 13:29:51;;;;;;;7.67;2.67;;;31.10;63.20;;;;;;5079876;28;20453;-74
2023/06/15 13:32:18;;;;;;;6.63;2.92;;;30.30;63.60;;;;;;5087268;28;20980;-74
2023/06/15 13:34:44;;;;;;;7.45;2.88;;;30.70;63.30;;;;;;5099927;28;20976;-74
2023/06/15 13:37:11;;;;;;;5.10;2.50;;;30.00;64.60;;;;;;5086095;28;20432;-74
2023/06/15 13:39:38;;;;;;;4.20;2.75;;;29.80;66.20;;;;;;5069864;28;20426;-74
2023/06/15 13:42:07;;;;;;;6.60;2.70;;;30.10;65.20;;;;;;5096835;28;20455;-74
2023/06/15 13:44:33;;;;;;;7.20;2.92;;;30.10;65.20;;;;;;5104497;28;20400;-74
2023/06/15 13:46:59;;;;;;;3.78;2.58;;;30.60;64.60;;;;;;5101231;28;20927;-74
2023/06/15 13:49:25;;;;;;;7.40;2.80;;;30.80;65.20;;;;;;5092614;28;20509;-74
2023/06/15 13:51:51;;;;;;;4.67;2.77;;;30.90;64.10;;;;;;5117384;27;20388;-74
2023/06/15 13:54:16;;;;;;;9.70;3.00;;;30.90;65.30;;;;;;5125040;27;20866;-74
2023/06/15 13:56:42;;;;;;;7.40;2.80;;;30.90;68.60;;;;;;5118138;27;20403;-74
2023/06/15 13:59:08;;;;;;;4.78;2.83;;;30.30;69.90;;;;;;5117746;27;20407;-74
2023/06/15 14:01:34;;;;;;;4.82;2.70;;;30.70;69.50;;;;;;5094941;28;20410;-74
2023/06/15 14:04:00;;;;;;;7.95;2.65;;;30.60;67.60;;;;;;5109850;27;20457;-74
2023/06/15 14:06:26;;;;;;;6.15;2.58;;;30.60;70.60;;;;;;5104458;28;20972;-74
2023/06/15 14:08:52;;;;;;;7.25;3.00;;;30.70;72.30;;;;;;5124850;27;20501;-74
2023/06/15 14:11:18;;;;;;;5.70;2.50;;;30.30;72.20;;;;;;5111736;27;20485;-73
2023/06/15 14:13:48;;;;;;;8.30;2.60;;;30.30;73.20;;;;;;5103046;27;20963;-74
2023/06/15 14:16:15;;;;;;;7.55;2.80;;;30.60;72.00;;;;;;5081219;28;20798;-73
2023/06/15 14:18:41;;;;;;;6.03;2.47;;;30.70;72.10;;;;;;5087008;28;20505;-74
2023/06/15 14:21:07;;;;;;;6.53;2.70;;;29.00;70.90;;;;;;5091217;28;20499;-74
2023/06/15 14:23:33;;;;;;;6.70;2.75;;;30.50;71.70;;;;;;5112019;28;20416;-73
2023/06/15 14:25:59;;;;;;;9.50;3.40;;;30.50;72.20;;;;;;5072582;28;20875;-76
2023/06/15 14:28:25;;;;;;;7.47;2.63;;;30.60;70.20;;;;;;5108699;27;20470;-76
2023/06/15 14:30:51;;;;;;;4.53;2.67;;;30.40;70.10;;;;;;5098767;28;20414;-76
2023/06/15 14:33:16;;;;;;;6.63;2.70;;;30.30;70.80;;;;;;5086425;28;20964;-76
2023/06/15 14:35:42;;;;;;;13.93;3.23;;;30.50;71.30;;;;;;5105438;28;20416;-76
2023/06/15 14:38:08;;;;;;;6.25;2.72;;;30.50;71.50;;;;;;5084362;28;20436;-76
2023/06/15 14:40:33;;;;;;;8.05;3.00;;;30.30;70.50;;;;;;5084535;28;20448;-75
2023/06/15 14:42:59;;;;;;;5.53;2.60;;;30.30;70.60;;;;;;5085069;27;20426;-75
2023/06/15 14:45:25;;;;;;;7.28;2.88;;;30.40;70.90;;;;;;5094171;28;20496;-75
2023/06/15 14:47:52;;;;;;;6.60;2.87;;;30.20;70.20;;;;;;5094772;28;20430;-76
2023/06/15 14:50:19;;;;;;;8.17;2.67;;;30.10;70.80;;;;;;5051556;28;20445;-76
2023/06/15 14:52:45;;;;;;;7.28;2.88;;;30.00;71.20;;;;;;5090716;28;20428;-76
2023/06/15 14:55:11;;;;;;;7.13;2.90;;;29.90;71.30;;;;;;5097909;28;20420;-81
2023/06/15 14:57:36;;;;;;;6.13;2.97;;;30.20;72.00;;;;;;5094746;28;20431;-75